Time;durP1;ratioP1;P1;durP2;ratioP2;P2;SDS_P1;SDS_P2;PMS_P1;PMS_P2;Temp;Humidity;BMP_temperature;BMP_pressure;BME280_temperature;BME280_humidity;BME280_pressure;Samples;Min_cycle;Max_cycle;Signal;HPM_P1;HPM_P2
2022/04/13 00:02:16;;;;;;;10.00;7.18;;;;;;;;;;4915249;29;20155;-65
2022/04/13 00:04:42;;;;;;;11.20;7.20;;;;;;;;;;4914942;29;20048;-65
2022/04/13 00:07:08;;;;;;;13.05;7.18;;;;;;;;;;4914645;29;20050;-65
2022/04/13 00:09:34;;;;;;;11.45;7.75;;;;;;;;;;4915148;29;20048;-65
2022/04/13 00:12:00;;;;;;;10.30;7.65;;;;;;;;;;4914157;29;20091;-65
2022/04/13 00:14:26;;;;;;;9.82;7.30;;;;;;;;;;4913234;29;20052;-65
2022/04/13 00:16:54;;;;;;;10.77;7.45;;;;;;;;;;4915064;29;20064;-65
2022/04/13 00:19:21;;;;;;;14.65;8.63;;;;;;;;;;4915190;29;20396;-65
2022/04/13 00:21:47;;;;;;;10.88;7.63;;;;;;;;;;4914588;29;20555;-65
2022/04/13 00:24:14;;;;;;;14.18;8.05;;;;;;;;;;4915141;29;20123;-65
2022/04/13 00:26:40;;;;;;;10.13;7.40;;;;;;;;;;4927160;29;20127;-65
2022/04/13 00:29:06;;;;;;;11.93;7.60;;;;;;;;;;4933246;29;20039;-65
2022/04/13 00:31:32;;;;;;;14.05;8.32;;;;;;;;;;4933705;29;20051;-65
2022/04/13 00:33:58;;;;;;;11.80;7.75;;;;;;;;;;4933697;29;20044;-65
2022/04/13 00:36:24;;;;;;;11.27;7.85;;;;;;;;;;4933252;29;20036;-65
2022/04/13 00:38:50;;;;;;;12.82;8.38;;;;;;;;;;4948356;29;20051;-65
2022/04/13 00:41:21;;;;;;;10.07;7.78;;;;;;;;;;4933977;29;20442;-65
2022/04/13 00:44:00;;;;;;;10.80;7.88;;;;;;;;;;4933275;29;20118;-65
2022/04/13 00:46:27;;;;;;;11.20;8.10;;;;;;;;;;4933965;29;20079;-65
2022/04/13 00:48:53;;;;;;;9.02;7.38;;;;;;;;;;4933826;29;20150;-65
2022/04/13 00:51:19;;;;;;;11.57;8.27;;;;;;;;;;4934764;29;20039;-65
2022/04/13 00:53:46;;;;;;;14.15;8.63;;;;;;;;;;4935887;29;20052;-65
2022/04/13 00:56:13;;;;;;;13.90;8.43;;;;;;;;;;4937221;29;20055;-65
2022/04/13 00:58:40;;;;;;;14.52;8.38;;;;;;;;;;4936525;29;20067;-65
2022/04/13 01:01:07;;;;;;;13.88;8.77;;;;;;;;;;4936908;29;20435;-65
2022/04/13 01:03:36;;;;;;;13.75;8.98;;;;;;;;;;4936703;29;20048;-65
2022/04/13 01:06:02;;;;;;;13.70;8.23;;;;;;;;;;4936407;29;20047;-65
2022/04/13 01:08:29;;;;;;;10.90;7.65;;;;;;;;;;4936980;29;20046;-65
2022/04/13 01:10:56;;;;;;;10.77;7.78;;;;;;;;;;4937011;29;20537;-65
2022/04/13 01:13:22;;;;;;;13.07;8.45;;;;;;;;;;4935983;29;20136;-65
2022/04/13 01:15:48;;;;;;;10.90;8.32;;;;;;;;;;4936965;29;20051;-65
2022/04/13 01:18:14;;;;;;;12.48;8.43;;;;;;;;;;4936668;29;20047;-65
2022/04/13 01:20:48;;;;;;;10.07;8.30;;;;;;;;;;4936170;29;20126;-65
2022/04/13 01:23:15;;;;;;;9.52;7.95;;;;;;;;;;4936726;29;20114;-65
2022/04/13 01:25:47;;;;;;;11.65;8.45;;;;;;;;;;4932331;29;20044;-65
2022/04/13 01:28:13;;;;;;;12.15;8.30;;;;;;;;;;4916954;29;20043;-65
2022/04/13 01:30:39;;;;;;;13.70;8.10;;;;;;;;;;4917881;29;20048;-65
2022/04/13 01:33:06;;;;;;;11.65;7.88;;;;;;;;;;4916516;29;20036;-65
2022/04/13 01:35:32;;;;;;;10.55;7.70;;;;;;;;;;4916776;29;20127;-65
2022/04/13 01:37:59;;;;;;;13.48;9.10;;;;;;;;;;4917597;29;20051;-65
2022/04/13 01:40:25;;;;;;;10.57;7.75;;;;;;;;;;4917701;29;20075;-65
2022/04/13 01:42:51;;;;;;;10.40;7.93;;;;;;;;;;4916892;29;20427;-65
2022/04/13 01:45:21;;;;;;;11.80;8.13;;;;;;;;;;4917658;29;20136;-65
2022/04/13 01:47:48;;;;;;;12.00;8.18;;;;;;;;;;4917215;29;20522;-65
2022/04/13 01:50:15;;;;;;;14.68;8.75;;;;;;;;;;4916682;29;20475;-65
2022/04/13 01:52:41;;;;;;;11.68;8.15;;;;;;;;;;4917077;29;20084;-65
2022/04/13 01:55:07;;;;;;;12.73;8.85;;;;;;;;;;4917198;29;20127;-65
2022/04/13 01:57:33;;;;;;;12.27;7.93;;;;;;;;;;4916276;29;20495;-65
2022/04/13 01:59:59;;;;;;;9.40;7.97;;;;;;;;;;4916970;29;20647;-65
2022/04/13 02:02:25;;;;;;;12.77;8.63;;;;;;;;;;4917029;29;20052;-65
2022/04/13 02:04:51;;;;;;;10.90;8.23;;;;;;;;;;4916234;29;20102;-65
2022/04/13 02:07:17;;;;;;;13.27;8.95;;;;;;;;;;4916697;29;20052;-65
2022/04/13 02:09:44;;;;;;;11.57;8.15;;;;;;;;;;4916765;29;20060;-65
2022/04/13 02:12:11;;;;;;;11.73;8.80;;;;;;;;;;4915957;29;20167;-65
2022/04/13 02:14:37;;;;;;;13.30;7.90;;;;;;;;;;4915612;29;20127;-65
2022/04/13 02:17:03;;;;;;;13.43;9.05;;;;;;;;;;4916832;29;20052;-65
2022/04/13 02:19:29;;;;;;;11.68;8.52;;;;;;;;;;4916327;29;20068;-65
2022/04/13 02:21:55;;;;;;;14.05;8.90;;;;;;;;;;4916861;29;20044;-65
2022/04/13 02:24:21;;;;;;;11.52;8.10;;;;;;;;;;4916691;29;20054;-65
2022/04/13 02:26:47;;;;;;;12.77;8.60;;;;;;;;;;4929171;29;20039;-65
2022/04/13 02:29:14;;;;;;;12.10;8.73;;;;;;;;;;4935198;29;20055;-65
2022/04/13 02:31:40;;;;;;;14.75;9.55;;;;;;;;;;4935496;29;20114;-65
2022/04/13 02:34:06;;;;;;;13.40;9.45;;;;;;;;;;4935353;29;20347;-65
2022/04/13 02:36:33;;;;;;;14.52;9.50;;;;;;;;;;4934919;29;20043;-65
2022/04/13 02:38:59;;;;;;;14.07;9.63;;;;;;;;;;4935252;29;20132;-65
2022/04/13 02:41:25;;;;;;;13.60;9.10;;;;;;;;;;4935285;29;20040;-65
2022/04/13 02:43:51;;;;;;;13.80;9.32;;;;;;;;;;4934549;29;20059;-65
2022/04/13 02:46:17;;;;;;;13.88;9.07;;;;;;;;;;4934057;29;20043;-65
2022/04/13 02:48:43;;;;;;;14.35;9.20;;;;;;;;;;4934815;29;20083;-65
2022/04/13 02:51:10;;;;;;;16.00;10.05;;;;;;;;;;4934574;29;20043;-65
2022/04/13 02:53:36;;;;;;;15.75;9.95;;;;;;;;;;4935054;29;20048;-65
2022/04/13 02:56:02;;;;;;;16.80;10.50;;;;;;;;;;4935306;29;20054;-65
2022/04/13 02:58:28;;;;;;;15.27;10.30;;;;;;;;;;4934035;29;20047;-65
2022/04/13 03:00:54;;;;;;;15.55;10.82;;;;;;;;;;4934740;29;20052;-65
2022/04/13 03:03:21;;;;;;;16.92;9.38;;;;;;;;;;4933453;29;20044;-65
2022/04/13 03:05:47;;;;;;;14.85;9.60;;;;;;;;;;4934240;29;20095;-65
2022/04/13 03:08:13;;;;;;;14.63;10.18;;;;;;;;;;4934822;29;20352;-65
2022/04/13 03:10:40;;;;;;;17.77;9.63;;;;;;;;;;4934704;29;20075;-65
2022/04/13 03:13:06;;;;;;;15.82;9.35;;;;;;;;;;4933769;29;20091;-65
2022/04/13 03:15:32;;;;;;;17.73;10.65;;;;;;;;;;4934613;29;20071;-65
2022/04/13 03:17:58;;;;;;;13.88;9.88;;;;;;;;;;4934792;29;20066;-65
2022/04/13 03:20:24;;;;;;;16.27;10.75;;;;;;;;;;4934047;29;20039;-65
2022/04/13 03:22:50;;;;;;;13.73;9.85;;;;;;;;;;4934747;29;20485;-65
2022/04/13 03:25:17;;;;;;;20.95;11.70;;;;;;;;;;4933346;29;20051;-65
2022/04/13 03:27:43;;;;;;;15.60;10.23;;;;;;;;;;4914870;29;20521;-65
2022/04/13 03:30:09;;;;;;;16.70;10.68;;;;;;;;;;4915678;29;20052;-65
2022/04/13 03:32:36;;;;;;;14.88;10.75;;;;;;;;;;4915661;29;20036;-65
2022/04/13 03:35:02;;;;;;;18.98;11.30;;;;;;;;;;4914832;29;20067;-65
2022/04/13 03:37:28;;;;;;;15.90;10.60;;;;;;;;;;4915589;29;20064;-65
2022/04/13 03:39:54;;;;;;;19.40;11.07;;;;;;;;;;4915563;29;20466;-65
2022/04/13 03:42:20;;;;;;;19.15;11.13;;;;;;;;;;4914793;29;20044;-65
2022/04/13 03:44:46;;;;;;;19.20;11.43;;;;;;;;;;4915436;29;20040;-65
2022/04/13 03:47:12;;;;;;;19.20;12.68;;;;;;;;;;4915410;29;20040;-65
2022/04/13 03:49:38;;;;;;;19.30;11.77;;;;;;;;;;4914705;29;20135;-65
2022/04/13 03:52:04;;;;;;;19.73;12.00;;;;;;;;;;4915539;29;20438;-65
2022/04/13 03:54:30;;;;;;;22.33;12.07;;;;;;;;;;4915491;29;20071;-65
2022/04/13 03:56:56;;;;;;;18.77;12.80;;;;;;;;;;4914713;29;20104;-65
2022/04/13 03:59:23;;;;;;;21.25;12.00;;;;;;;;;;4915497;29;20392;-65
2022/04/13 04:01:49;;;;;;;19.33;11.48;;;;;;;;;;4914930;29;20060;-65
2022/04/13 04:04:15;;;;;;;17.52;11.27;;;;;;;;;;4914531;29;20047;-65
2022/04/13 04:06:41;;;;;;;21.60;11.85;;;;;;;;;;4915013;29;20048;-65
2022/04/13 04:09:07;;;;;;;19.25;11.35;;;;;;;;;;4915347;29;20094;-65
2022/04/13 04:11:33;;;;;;;18.20;11.43;;;;;;;;;;4914670;29;20044;-65
2022/04/13 04:14:00;;;;;;;18.75;12.10;;;;;;;;;;4915226;29;20047;-65
2022/04/13 04:16:26;;;;;;;18.25;11.57;;;;;;;;;;4914934;29;20045;-65
2022/04/13 04:18:53;;;;;;;18.88;11.45;;;;;;;;;;4914209;29;20095;-65
2022/04/13 04:21:19;;;;;;;18.13;12.35;;;;;;;;;;4915021;29;20115;-65
2022/04/13 04:23:45;;;;;;;19.92;11.70;;;;;;;;;;4915234;29;20052;-65
2022/04/13 04:26:11;;;;;;;21.48;11.57;;;;;;;;;;4924170;29;20115;-65
2022/04/13 04:28:38;;;;;;;16.38;11.38;;;;;;;;;;4968631;28;20048;-65
2022/04/13 04:31:04;;;;;;;18.02;11.75;;;;;;;;;;4937551;29;20040;-65
2022/04/13 04:33:30;;;;;;;16.80;11.30;;;;;;;;;;4937004;29;20040;-65
2022/04/13 04:35:56;;;;;;;17.17;11.15;;;;;;;;;;4937345;29;20490;-65
2022/04/13 04:38:23;;;;;;;18.45;11.50;;;;;;;;;;4937353;29;20044;-65
2022/04/13 04:40:50;;;;;;;15.20;10.35;;;;;;;;;;4936956;29;20094;-65
2022/04/13 04:43:16;;;;;;;19.60;12.13;;;;;;;;;;4937486;29;20070;-65
2022/04/13 04:45:42;;;;;;;16.90;11.25;;;;;;;;;;4937220;29;20054;-65
2022/04/13 04:48:08;;;;;;;17.88;10.60;;;;;;;;;;4936785;29;20051;-65
2022/04/13 04:50:35;;;;;;;16.13;11.15;;;;;;;;;;4937286;29;20056;-65
2022/04/13 04:53:01;;;;;;;16.60;11.27;;;;;;;;;;4937469;29;20035;-65
2022/04/13 04:55:27;;;;;;;16.27;11.50;;;;;;;;;;4936715;29;20048;-65
2022/04/13 04:57:53;;;;;;;17.52;11.13;;;;;;;;;;4936784;29;20553;-65
2022/04/13 05:00:21;;;;;;;16.27;11.02;;;;;;;;;;4937064;29;20106;-65
2022/04/13 05:02:48;;;;;;;17.65;12.00;;;;;;;;;;4936550;29;20067;-65
2022/04/13 05:05:14;;;;;;;15.93;11.38;;;;;;;;;;4937025;29;20055;-65
2022/04/13 05:07:40;;;;;;;16.05;11.25;;;;;;;;;;4937073;29;20442;-65
2022/04/13 05:10:07;;;;;;;18.10;11.50;;;;;;;;;;4936158;29;20043;-65
2022/04/13 05:12:41;;;;;;;22.23;12.82;;;;;;;;;;4937075;29;20052;-65
2022/04/13 05:15:07;;;;;;;16.80;12.48;;;;;;;;;;4936603;29;20040;-65
2022/04/13 05:17:33;;;;;;;23.15;13.70;;;;;;;;;;4936118;29;20039;-65
2022/04/13 05:19:59;;;;;;;17.73;11.82;;;;;;;;;;4936458;29;20095;-65
2022/04/13 05:22:25;;;;;;;20.13;11.95;;;;;;;;;;4936852;29;20040;-65
2022/04/13 05:24:51;;;;;;;21.88;12.40;;;;;;;;;;4936165;29;20048;-65
2022/04/13 05:27:18;;;;;;;23.75;14.23;;;;;;;;;;4919713;29;20498;-65
2022/04/13 05:29:44;;;;;;;21.83;14.40;;;;;;;;;;4917792;29;20123;-65
2022/04/13 05:32:10;;;;;;;26.00;15.02;;;;;;;;;;4917367;29;20040;-65
2022/04/13 05:34:36;;;;;;;23.77;16.15;;;;;;;;;;4916412;29;20546;-65
2022/04/13 05:37:02;;;;;;;25.00;15.18;;;;;;;;;;4916605;29;20075;-65
2022/04/13 05:39:28;;;;;;;24.23;16.27;;;;;;;;;;4916992;29;20139;-65
2022/04/13 05:41:54;;;;;;;26.33;16.60;;;;;;;;;;4916713;29;20040;-65
2022/04/13 05:44:20;;;;;;;29.17;17.10;;;;;;;;;;4917417;29;20087;-65
2022/04/13 05:46:46;;;;;;;29.92;16.95;;;;;;;;;;4915591;29;20040;-65
2022/04/13 05:49:13;;;;;;;32.45;16.75;;;;;;;;;;4917482;29;20048;-65
2022/04/13 05:51:39;;;;;;;28.85;16.90;;;;;;;;;;4917191;29;20083;-65
2022/04/13 05:54:05;;;;;;;29.13;17.08;;;;;;;;;;4931076;29;20043;-65
2022/04/13 05:56:31;;;;;;;25.45;17.02;;;;;;;;;;4932483;29;20050;-65
2022/04/13 05:58:57;;;;;;;29.55;17.40;;;;;;;;;;4931052;29;20054;-65
2022/04/13 06:01:23;;;;;;;34.95;17.73;;;;;;;;;;4937475;29;20060;-65
2022/04/13 06:03:49;;;;;;;27.23;16.70;;;;;;;;;;4934409;29;20070;-65
2022/04/13 06:06:15;;;;;;;32.30;17.90;;;;;;;;;;4950906;29;20486;-65
2022/04/13 06:08:42;;;;;;;29.08;17.02;;;;;;;;;;4954155;29;20051;-65
2022/04/13 06:11:08;;;;;;;27.00;16.52;;;;;;;;;;4954603;29;20043;-65
2022/04/13 06:13:34;;;;;;;32.17;18.10;;;;;;;;;;4954323;29;20039;-65
2022/04/13 06:16:00;;;;;;;31.30;17.30;;;;;;;;;;4954485;29;20044;-65
2022/04/13 06:18:26;;;;;;;33.78;18.35;;;;;;;;;;4953263;29;20114;-65
2022/04/13 06:20:52;;;;;;;32.05;18.33;;;;;;;;;;4954055;29;20039;-66
2022/04/13 06:23:18;;;;;;;29.17;18.45;;;;;;;;;;4950002;29;20050;-65
2022/04/13 06:25:44;;;;;;;28.08;17.88;;;;;;;;;;4948668;29;20036;-65
2022/04/13 06:28:10;;;;;;;29.85;17.63;;;;;;;;;;4935316;29;20035;-65
2022/04/13 06:30:36;;;;;;;27.38;18.10;;;;;;;;;;4951083;29;20444;-65
2022/04/13 06:33:02;;;;;;;32.95;18.75;;;;;;;;;;4934433;29;20062;-65
2022/04/13 06:35:28;;;;;;;33.42;17.90;;;;;;;;;;4935768;29;20078;-65
2022/04/13 06:37:54;;;;;;;33.92;17.67;;;;;;;;;;4949315;29;20142;-65
2022/04/13 06:40:20;;;;;;;27.50;15.82;;;;;;;;;;4936927;29;20146;-65
2022/04/13 06:42:47;;;;;;;26.00;16.40;;;;;;;;;;4942865;28;20640;-65
2022/04/13 06:45:14;;;;;;;22.48;15.15;;;;;;;;;;4945520;28;20490;-66
2022/04/13 06:47:41;;;;;;;29.00;17.00;;;;;;;;;;4922871;28;20046;-65
2022/04/13 06:50:07;;;;;;;24.55;15.20;;;;;;;;;;4938587;29;20040;-66
2022/04/13 06:52:34;;;;;;;27.80;15.15;;;;;;;;;;4942881;29;20044;-66
2022/04/13 06:55:01;;;;;;;23.38;15.02;;;;;;;;;;4935624;29;20035;-68
2022/04/13 06:57:27;;;;;;;27.48;15.05;;;;;;;;;;4940805;29;20667;-69
2022/04/13 06:59:53;;;;;;;27.10;16.10;;;;;;;;;;4931105;29;20058;-67
2022/04/13 07:02:19;;;;;;;28.88;16.13;;;;;;;;;;4939563;29;20047;-68
2022/04/13 07:04:45;;;;;;;26.80;15.60;;;;;;;;;;4945187;29;20045;-67
2022/04/13 07:07:11;;;;;;;23.98;14.93;;;;;;;;;;4939218;29;20054;-67
2022/04/13 07:09:37;;;;;;;25.13;14.90;;;;;;;;;;4944161;29;20047;-68
2022/04/13 07:12:04;;;;;;;23.83;14.38;;;;;;;;;;4944007;29;20043;-68
2022/04/13 07:14:30;;;;;;;28.20;14.02;;;;;;;;;;4936142;29;20583;-68
2022/04/13 07:16:56;;;;;;;22.67;15.02;;;;;;;;;;4940489;29;20454;-68
2022/04/13 07:19:22;;;;;;;23.70;13.88;;;;;;;;;;4940483;29;20467;-68
2022/04/13 07:21:48;;;;;;;24.88;13.68;;;;;;;;;;4937546;29;20047;-68
2022/04/13 07:24:14;;;;;;;22.40;12.90;;;;;;;;;;4948761;29;20461;-68
2022/04/13 07:26:40;;;;;;;24.65;13.25;;;;;;;;;;4944704;29;20043;-68
2022/04/13 07:29:06;;;;;;;22.52;13.50;;;;;;;;;;4935930;29;20093;-68
2022/04/13 07:31:32;;;;;;;23.90;13.65;;;;;;;;;;4935652;29;20428;-64
2022/04/13 07:33:58;;;;;;;21.70;13.43;;;;;;;;;;4941883;28;20095;-64
2022/04/13 07:36:24;;;;;;;24.88;13.50;;;;;;;;;;4940411;29;20035;-63
2022/04/13 07:38:51;;;;;;;22.50;14.25;;;;;;;;;;4943314;29;20466;-63
2022/04/13 07:41:17;;;;;;;22.92;13.32;;;;;;;;;;4935712;29;20068;-63
2022/04/13 07:43:47;;;;;;;22.13;13.15;;;;;;;;;;4941248;28;20039;-66
2022/04/13 07:46:13;;;;;;;23.23;14.00;;;;;;;;;;4934305;29;20073;-64
2022/04/13 07:48:39;;;;;;;22.58;14.43;;;;;;;;;;4938714;29;20051;-65
2022/04/13 07:51:05;;;;;;;25.02;14.52;;;;;;;;;;4953030;29;20043;-63
2022/04/13 07:53:31;;;;;;;25.55;15.07;;;;;;;;;;4946990;29;20378;-63
2022/04/13 07:55:57;;;;;;;22.60;13.32;;;;;;;;;;4945491;28;20043;-65
2022/04/13 07:58:23;;;;;;;22.58;13.40;;;;;;;;;;4940931;29;20047;-67
2022/04/13 08:00:49;;;;;;;21.08;12.80;;;;;;;;;;4939807;29;20146;-67
2022/04/13 08:03:15;;;;;;;22.50;13.18;;;;;;;;;;4949540;29;20070;-65
2022/04/13 08:05:41;;;;;;;18.65;10.13;;;;;;;;;;4949409;29;20075;-66
2022/04/13 08:08:07;;;;;;;18.98;10.75;;;;;;;;;;4944738;29;20062;-64
2022/04/13 08:10:33;;;;;;;16.88;9.98;;;;;;;;;;4933281;29;20071;-66
2022/04/13 08:12:59;;;;;;;22.95;10.32;;;;;;;;;;4932798;29;20050;-66
2022/04/13 08:15:25;;;;;;;20.17;10.50;;;;;;;;;;4934225;29;20095;-65
2022/04/13 08:17:51;;;;;;;24.40;11.60;;;;;;;;;;4939604;29;20739;-66
2022/04/13 08:20:17;;;;;;;17.92;10.70;;;;;;;;;;4933022;29;20433;-62
2022/04/13 08:22:44;;;;;;;19.80;9.85;;;;;;;;;;4942430;29;20052;-64
2022/04/13 08:25:11;;;;;;;18.30;10.30;;;;;;;;;;4940578;29;20091;-64
2022/04/13 08:27:37;;;;;;;17.27;10.43;;;;;;;;;;4946060;29;20059;-64
2022/04/13 08:30:03;;;;;;;21.58;10.85;;;;;;;;;;4951879;29;20047;-65
2022/04/13 08:32:30;;;;;;;18.17;11.60;;;;;;;;;;4948350;29;20126;-66
2022/04/13 08:34:57;;;;;;;19.42;10.68;;;;;;;;;;4943301;29;20553;-66
2022/04/13 08:37:25;;;;;;;18.02;10.88;;;;;;;;;;4936766;29;20043;-66
2022/04/13 08:39:51;;;;;;;21.48;9.43;;;;;;;;;;4947906;29;20058;-64
2022/04/13 08:42:17;;;;;;;14.98;9.15;;;;;;;;;;4946255;29;20039;-64
2022/04/13 08:44:43;;;;;;;15.75;9.90;;;;;;;;;;4933488;29;20148;-64
2022/04/13 08:47:13;;;;;;;19.75;9.55;;;;;;;;;;4931962;29;20040;-65
2022/04/13 08:49:40;;;;;;;16.25;9.35;;;;;;;;;;4925482;29;20479;-64
2022/04/13 08:52:08;;;;;;;20.23;8.70;;;;;;;;;;4931780;29;20048;-65
2022/04/13 08:54:39;;;;;;;18.08;9.35;;;;;;;;;;4930154;29;20115;-66
2022/04/13 08:57:09;;;;;;;19.80;7.00;;;;;;;;;;4935817;29;20091;-65
2022/04/13 08:59:42;;;;;;;14.82;8.15;;;;;;;;;;4930902;29;20044;-65
2022/04/13 09:02:27;;;;;;;13.20;7.78;;;;;;;;;;4909676;29;20103;-64
2022/04/13 09:04:54;;;;;;;14.27;8.00;;;;;;;;;;4914280;29;20063;-65
2022/04/13 09:07:21;;;;;;;13.13;7.97;;;;;;;;;;4921263;29;20072;-65
2022/04/13 09:09:48;;;;;;;13.63;7.25;;;;;;;;;;4924416;29;20070;-65
2022/04/13 09:12:14;;;;;;;13.90;6.60;;;;;;;;;;4926494;29;20047;-66
2022/04/13 09:14:40;;;;;;;14.73;6.72;;;;;;;;;;4919218;29;20039;-65
2022/04/13 09:17:08;;;;;;;14.60;6.72;;;;;;;;;;4927150;29;20035;-66
2022/04/13 09:19:34;;;;;;;12.75;5.82;;;;;;;;;;4923306;29;20103;-65
2022/04/13 09:22:00;;;;;;;12.55;6.22;;;;;;;;;;4911645;29;20072;-64
2022/04/13 09:24:30;;;;;;;12.75;6.43;;;;;;;;;;4921881;29;20047;-65
2022/04/13 09:26:56;;;;;;;10.90;5.57;;;;;;;;;;4914685;29;20031;-64
2022/04/13 09:29:22;;;;;;;11.85;6.03;;;;;;;;;;4916831;29;20076;-64
2022/04/13 09:31:48;;;;;;;9.77;5.50;;;;;;;;;;4922393;29;20384;-64
2022/04/13 09:34:14;;;;;;;12.07;5.80;;;;;;;;;;4918845;29;20130;-64
2022/04/13 09:36:40;;;;;;;10.35;5.90;;;;;;;;;;4914863;29;20072;-64
2022/04/13 09:39:07;;;;;;;12.35;5.50;;;;;;;;;;4921534;29;20059;-64
2022/04/13 09:41:34;;;;;;;10.98;6.10;;;;;;;;;;4914112;29;20107;-66
2022/04/13 09:44:00;;;;;;;9.43;5.72;;;;;;;;;;4927199;29;20052;-65
2022/04/13 09:46:28;;;;;;;13.05;6.90;;;;;;;;;;4912865;29;20055;-63
2022/04/13 09:49:09;;;;;;;10.75;5.68;;;;;;;;;;4906798;29;20059;-64
2022/04/13 09:51:39;;;;;;;10.32;5.53;;;;;;;;;;4910920;29;20127;-64
2022/04/13 09:54:09;;;;;;;9.93;5.47;;;;;;;;;;4906563;29;20032;-64
2022/04/13 09:56:43;;;;;;;10.40;5.85;;;;;;;;;;4922798;29;21644;-64
2022/04/13 09:59:10;;;;;;;11.38;6.03;;;;;;;;;;4921757;29;20039;-67
2022/04/13 10:01:36;;;;;;;11.35;6.50;;;;;;;;;;4932299;29;20062;-66
2022/04/13 10:04:03;;;;;;;11.60;6.40;;;;;;;;;;4935722;29;20061;-66
2022/04/13 10:06:35;;;;;;;11.43;6.50;;;;;;;;;;4930157;29;20479;-67
2022/04/13 10:09:05;;;;;;;13.52;5.97;;;;;;;;;;4935366;29;20550;-66
2022/04/13 10:11:31;;;;;;;10.70;6.07;;;;;;;;;;4940661;29;20048;-66
2022/04/13 10:14:01;;;;;;;9.40;5.78;;;;;;;;;;4936911;29;20031;-64
2022/04/13 10:16:31;;;;;;;10.57;5.78;;;;;;;;;;4912624;29;20039;-63
2022/04/13 10:18:58;;;;;;;14.23;5.32;;;;;;;;;;4939727;29;20079;-64
2022/04/13 10:21:43;;;;;;;10.20;5.65;;;;;;;;;;4936533;29;20036;-63
2022/04/13 10:24:11;;;;;;;10.55;5.35;;;;;;;;;;4940738;29;20371;-62
2022/04/13 10:26:39;;;;;;;8.20;4.95;;;;;;;;;;4941336;28;20054;-63
2022/04/13 10:29:15;;;;;;;9.10;5.55;;;;;;;;;;4944937;28;20059;-61
2022/04/13 10:31:41;;;;;;;8.90;5.03;;;;;;;;;;4928352;29;20596;-61
2022/04/13 10:34:08;;;;;;;12.38;5.32;;;;;;;;;;4932948;29;20055;-61
2022/04/13 10:36:34;;;;;;;11.05;5.45;;;;;;;;;;4937432;29;20059;-61
2022/04/13 10:39:00;;;;;;;8.50;4.47;;;;;;;;;;4935068;29;20044;-61
2022/04/13 10:41:27;;;;;;;9.05;4.90;;;;;;;;;;4942890;29;20054;-64
2022/04/13 10:43:55;;;;;;;6.68;4.63;;;;;;;;;;4941026;29;20044;-64
2022/04/13 10:46:21;;;;;;;7.03;4.30;;;;;;;;;;4933033;29;20048;-64
2022/04/13 10:48:54;;;;;;;12.30;4.43;;;;;;;;;;4942843;29;20047;-66
2022/04/13 10:51:25;;;;;;;11.80;5.00;;;;;;;;;;4926652;28;20039;-66
2022/04/13 10:54:01;;;;;;;6.85;3.70;;;;;;;;;;4927444;29;20458;-68
2022/04/13 10:56:27;;;;;;;7.68;3.13;;;;;;;;;;4937228;29;20040;-66
2022/04/13 10:59:08;;;;;;;5.18;3.10;;;;;;;;;;4937676;29;20058;-67
2022/04/13 11:01:47;;;;;;;5.18;2.50;;;;;;;;;;4946773;29;20527;-67
2022/04/13 11:04:14;;;;;;;4.63;1.80;;;;;;;;;;4952717;29;20413;-65
2022/04/13 11:06:43;;;;;;;2.30;1.70;;;;;;;;;;4940205;29;20051;-66
2022/04/13 11:09:12;;;;;;;3.85;2.15;;;;;;;;;;4926274;29;20939;-68
2022/04/13 11:11:40;;;;;;;4.95;2.42;;;;;;;;;;4957912;28;20039;-67
2022/04/13 11:14:19;;;;;;;6.15;3.10;;;;;;;;;;4939767;29;20127;-66
2022/04/13 11:16:45;;;;;;;7.22;2.92;;;;;;;;;;4927579;29;20088;-66
2022/04/13 11:19:11;;;;;;;8.27;2.60;;;;;;;;;;4929384;29;20047;-69
2022/04/13 11:21:52;;;;;;;8.15;3.40;;;;;;;;;;4951747;29;20495;-67
2022/04/13 11:24:42;;;;;;;6.28;3.53;;;;;;;;;;4929520;29;20050;-66
2022/04/13 11:27:09;;;;;;;5.35;2.90;;;;;;;;;;4923489;29;20500;-66
2022/04/13 11:29:36;;;;;;;4.78;2.83;;;;;;;;;;4950197;29;20086;-66
2022/04/13 11:32:04;;;;;;;5.72;2.78;;;;;;;;;;4944009;29;20055;-66
2022/04/13 11:34:45;;;;;;;8.18;3.50;;;;;;;;;;4937545;29;20047;-66
2022/04/13 11:37:16;;;;;;;5.78;2.90;;;;;;;;;;4948197;29;20490;-67
2022/04/13 11:39:51;;;;;;;7.63;3.88;;;;;;;;;;4929314;29;20175;-65
2022/04/13 11:42:42;;;;;;;7.55;3.55;;;;;;;;;;4928464;29;20054;-66
2022/04/13 11:45:09;;;;;;;9.55;3.65;;;;;;;;;;4936869;29;20090;-66
2022/04/13 11:47:37;;;;;;;5.50;3.45;;;;;;;;;;4942050;28;20043;-68
2022/04/13 11:50:18;;;;;;;8.50;4.82;;;;;;;;;;4936057;29;20043;-66
2022/04/13 11:52:48;;;;;;;11.00;5.05;;;;;;;;;;4936379;29;20040;-65
2022/04/13 11:55:21;;;;;;;8.63;5.43;;;;;;;;;;4936463;29;20122;-67
2022/04/13 11:58:08;;;;;;;7.55;4.60;;;;;;;;;;4935359;29;20440;-68
2022/04/13 12:00:41;;;;;;;14.43;5.97;;;;;;;;;;4933601;29;20060;-68
2022/04/13 12:03:11;;;;;;;11.10;5.60;;;;;;;;;;4943308;29;20048;-66
2022/04/13 12:05:41;;;;;;;16.10;5.90;;;;;;;;;;4933878;29;20115;-66
2022/04/13 12:08:15;;;;;;;8.57;4.80;;;;;;;;;;4934582;29;20048;-66
2022/04/13 12:10:48;;;;;;;8.57;4.10;;;;;;;;;;4937138;29;20506;-64
2022/04/13 12:13:14;;;;;;;10.73;3.70;;;;;;;;;;4951698;29;20098;-64
2022/04/13 12:15:45;;;;;;;9.73;3.97;;;;;;;;;;4939994;29;20091;-64
2022/04/13 12:18:11;;;;;;;7.88;3.00;;;;;;;;;;4936738;29;20475;-65
2022/04/13 12:20:37;;;;;;;8.48;3.65;;;;;;;;;;4939874;29;20051;-64
2022/04/13 12:23:20;;;;;;;6.78;3.85;;;;;;;;;;4950338;29;20054;-64
2022/04/13 12:25:47;;;;;;;7.88;3.70;;;;;;;;;;4936197;29;20044;-63
2022/04/13 12:28:13;;;;;;;10.68;4.75;;;;;;;;;;4937381;29;20048;-63
2022/04/13 12:30:40;;;;;;;10.73;4.75;;;;;;;;;;4927329;29;20055;-64
2022/04/13 12:33:23;;;;;;;8.10;4.45;;;;;;;;;;4933719;29;20538;-63
2022/04/13 12:35:58;;;;;;;7.68;2.95;;;;;;;;;;4929217;29;20040;-63
2022/04/13 12:38:28;;;;;;;8.10;1.90;;;;;;;;;;4923338;29;20040;-63
2022/04/13 12:41:04;;;;;;;4.40;1.58;;;;;;;;;;4918068;29;20130;-63
2022/04/13 12:43:31;;;;;;;4.60;1.40;;;;;;;;;;4946109;28;20575;-63
2022/04/13 12:45:57;;;;;;;3.38;1.30;;;;;;;;;;4941740;29;20048;-63
2022/04/13 12:48:29;;;;;;;3.97;1.17;;;;;;;;;;4949550;29;20058;-63
2022/04/13 12:50:59;;;;;;;5.20;1.30;;;;;;;;;;4941429;29;20054;-63
2022/04/13 12:53:25;;;;;;;5.65;1.80;;;;;;;;;;4952573;29;20039;-63
2022/04/13 12:55:52;;;;;;;8.38;1.45;;;;;;;;;;4953276;29;20044;-63
2022/04/13 12:58:18;;;;;;;8.27;1.38;;;;;;;;;;4953319;29;20035;-63
2022/04/13 13:00:54;;;;;;;7.22;1.45;;;;;;;;;;4954116;28;20106;-63
2022/04/13 13:03:21;;;;;;;8.63;1.52;;;;;;;;;;4927178;29;20129;-64
2022/04/13 13:05:48;;;;;;;6.13;1.20;;;;;;;;;;4944133;29;20406;-63
2022/04/13 13:08:14;;;;;;;6.90;1.60;;;;;;;;;;4940259;29;20047;-63
2022/04/13 13:10:47;;;;;;;7.93;1.83;;;;;;;;;;4937128;29;20143;-63
2022/04/13 13:13:17;;;;;;;9.30;2.25;;;;;;;;;;4950547;29;20118;-64
2022/04/13 13:15:44;;;;;;;12.45;2.58;;;;;;;;;;4935512;29;20106;-63
2022/04/13 13:18:10;;;;;;;3.83;1.58;;;;;;;;;;4945498;29;20528;-63
2022/04/13 13:20:52;;;;;;;9.15;2.33;;;;;;;;;;4949362;29;20498;-63
2022/04/13 13:23:25;;;;;;;9.18;2.33;;;;;;;;;;4938557;29;20809;-64
2022/04/13 13:25:52;;;;;;;10.30;2.70;;;;;;;;;;4940158;29;20053;-63
2022/04/13 13:28:23;;;;;;;6.75;2.97;;;;;;;;;;4937172;29;20071;-63
2022/04/13 13:30:51;;;;;;;8.55;2.28;;;;;;;;;;4943179;28;20052;-63
2022/04/13 13:33:19;;;;;;;8.70;3.00;;;;;;;;;;4945109;29;20122;-63
2022/04/13 13:35:45;;;;;;;9.05;3.30;;;;;;;;;;4947736;28;20039;-64
2022/04/13 13:38:11;;;;;;;7.78;3.35;;;;;;;;;;4947275;29;20562;-64
2022/04/13 13:40:40;;;;;;;7.53;2.55;;;;;;;;;;4945206;29;21516;-64
2022/04/13 13:43:06;;;;;;;9.02;2.40;;;;;;;;;;4944151;28;20043;-65
2022/04/13 13:45:36;;;;;;;8.00;2.00;;;;;;;;;;4946251;29;20050;-67
2022/04/13 13:48:03;;;;;;;6.45;2.00;;;;;;;;;;4946422;29;20635;-67
2022/04/13 13:50:29;;;;;;;5.82;1.88;;;;;;;;;;4953509;29;20046;-65
2022/04/13 13:52:56;;;;;;;7.38;2.42;;;;;;;;;;4947356;29;20075;-67
2022/04/13 13:55:30;;;;;;;5.13;1.88;;;;;;;;;;4953044;29;20043;-67
2022/04/13 13:57:57;;;;;;;6.53;2.53;;;;;;;;;;4948762;28;20746;-67
2022/04/13 14:00:24;;;;;;;8.15;2.55;;;;;;;;;;4946725;29;20073;-67
2022/04/13 14:02:53;;;;;;;10.05;3.00;;;;;;;;;;4930668;28;20052;-68
2022/04/13 14:05:21;;;;;;;9.88;2.78;;;;;;;;;;4937496;29;20125;-68
2022/04/13 14:07:47;;;;;;;13.85;3.50;;;;;;;;;;4938629;29;20054;-67
2022/04/13 14:10:13;;;;;;;7.65;2.80;;;;;;;;;;4945615;29;20410;-68
2022/04/13 14:12:39;;;;;;;13.20;3.17;;;;;;;;;;4935011;29;20044;-68
2022/04/13 14:15:05;;;;;;;13.05;3.30;;;;;;;;;;4929285;29;20028;-68
2022/04/13 14:17:31;;;;;;;7.82;2.92;;;;;;;;;;4932784;29;20541;-64
2022/04/13 14:19:57;;;;;;;9.95;3.92;;;;;;;;;;4927383;29;20051;-63
2022/04/13 14:22:24;;;;;;;11.70;3.65;;;;;;;;;;4924953;29;20052;-63
2022/04/13 14:24:50;;;;;;;14.30;3.72;;;;;;;;;;4916603;29;20051;-63
2022/04/13 14:27:16;;;;;;;10.95;3.08;;;;;;;;;;4944575;29;20131;-63
2022/04/13 14:29:42;;;;;;;9.18;3.03;;;;;;;;;;4924892;29;20164;-63
2022/04/13 14:32:08;;;;;;;10.07;2.88;;;;;;;;;;4925765;29;20051;-63